Time;durP1;ratioP1;P1;durP2;ratioP2;P2;SDS_P1;SDS_P2;PMS_P1;PMS_P2;Temp;Humidity;BMP_temperature;BMP_pressure;BME280_temperature;BME280_humidity;BME280_pressure;Samples;Min_cycle;Max_cycle;Signal;HPM_P1;HPM_P2
2023/06/20 00:01:15;;;;;;;18.52;10.95;;;;;;;;;;2531652;23;20014;-81
2023/06/20 00:02:36;;;;;;;21.17;11.32;;;;;;;;;;2534371;23;20014;-81
2023/06/20 00:03:57;;;;;;;20.27;10.90;;;;;;;;;;2534032;23;20014;-81
2023/06/20 00:05:20;;;;;;;19.42;10.20;;;;;;;;;;2529024;23;20006;-80
2023/06/20 00:06:41;;;;;;;22.00;11.85;;;;;;;;;;2539246;23;20013;-81
2023/06/20 00:08:02;;;;;;;16.90;9.98;;;;;;;;;;2531144;23;20006;-80
2023/06/20 00:09:23;;;;;;;21.15;10.13;;;;;;;;;;2528733;23;20017;-81
2023/06/20 00:10:44;;;;;;;25.02;11.43;;;;;;;;;;2534427;23;20013;-80
2023/06/20 00:12:05;;;;;;;19.48;9.98;;;;;;;;;;2532738;23;20021;-81
2023/06/20 00:13:26;;;;;;;18.07;10.37;;;;;;;;;;2527739;23;20033;-80
2023/06/20 00:14:47;;;;;;;19.88;10.55;;;;;;;;;;2526688;23;20006;-81
2023/06/20 00:16:20;;;;;;;22.02;11.13;;;;;;;;;;2528336;23;20371;-80
2023/06/20 00:17:44;;;;;;;18.92;9.95;;;;;;;;;;2531918;23;20584;-80
2023/06/20 00:19:08;;;;;;;18.23;10.40;;;;;;;;;;2533075;23;20006;-81
2023/06/20 00:20:30;;;;;;;20.40;10.15;;;;;;;;;;2531098;23;20005;-81
2023/06/20 00:21:51;;;;;;;23.35;10.43;;;;;;;;;;2532141;23;20013;-81
2023/06/20 00:23:12;;;;;;;23.52;11.20;;;;;;;;;;2530296;23;20006;-81
2023/06/20 00:24:35;;;;;;;18.15;10.30;;;;;;;;;;2532297;23;20475;-81
2023/06/20 00:25:56;;;;;;;26.55;12.60;;;;;;;;;;2531450;23;20014;-80
2023/06/20 00:27:17;;;;;;;21.08;10.15;;;;;;;;;;2531913;23;20014;-81
2023/06/20 00:28:38;;;;;;;16.90;10.02;;;;;;;;;;2528663;23;20404;-80
2023/06/20 00:29:59;;;;;;;22.58;11.68;;;;;;;;;;2528792;23;20017;-80
2023/06/20 00:31:24;;;;;;;17.70;9.67;;;;;;;;;;2538932;23;20095;-80
2023/06/20 00:32:44;;;;;;;23.20;11.57;;;;;;;;;;2531312;23;20017;-80
2023/06/20 00:34:08;;;;;;;22.45;11.07;;;;;;;;;;2529446;23;20022;-80
2023/06/20 00:35:30;;;;;;;23.30;11.50;;;;;;;;;;2530841;23;20010;-81
2023/06/20 00:36:54;;;;;;;17.95;9.45;;;;;;;;;;2532190;23;20018;-80
2023/06/20 00:38:15;;;;;;;17.42;9.80;;;;;;;;;;2531857;23;20021;-81
2023/06/20 00:39:36;;;;;;;21.05;10.82;;;;;;;;;;2530982;23;20018;-80
2023/06/20 00:40:58;;;;;;;20.48;10.10;;;;;;;;;;2541289;23;20009;-80
2023/06/20 00:42:29;;;;;;;24.50;11.50;;;;;;;;;;2530365;23;20069;-80
2023/06/20 00:43:59;;;;;;;32.22;13.43;;;;;;;;;;2529239;23;20018;-79
2023/06/20 00:45:28;;;;;;;24.80;11.43;;;;;;;;;;2531825;23;20014;-80
2023/06/20 00:46:52;;;;;;;22.77;10.75;;;;;;;;;;2539343;23;20390;-80
2023/06/20 00:48:14;;;;;;;18.23;10.18;;;;;;;;;;2532110;23;20021;-80
2023/06/20 00:49:35;;;;;;;21.77;10.60;;;;;;;;;;2525829;23;20006;-80
2023/06/20 00:50:56;;;;;;;22.88;11.32;;;;;;;;;;2527552;23;20006;-79
2023/06/20 00:52:22;;;;;;;23.35;11.50;;;;;;;;;;2528433;23;20017;-79
2023/06/20 00:53:47;;;;;;;17.85;10.00;;;;;;;;;;2535392;23;20017;-80
2023/06/20 00:55:08;;;;;;;20.17;11.25;;;;;;;;;;2531904;23;20336;-80
2023/06/20 00:56:32;;;;;;;26.98;12.73;;;;;;;;;;2524070;23;20017;-80
2023/06/20 00:57:55;;;;;;;35.47;13.82;;;;;;;;;;2524593;23;20009;-80
2023/06/20 00:59:16;;;;;;;39.13;15.02;;;;;;;;;;2535586;23;20394;-79
2023/06/20 01:00:38;;;;;;;22.17;11.38;;;;;;;;;;2536475;23;20006;-79
2023/06/20 01:01:59;;;;;;;19.52;11.88;;;;;;;;;;2531716;23;20006;-79
2023/06/20 01:03:21;;;;;;;23.42;12.35;;;;;;;;;;2529733;23;20506;-80
2023/06/20 01:04:46;;;;;;;27.05;12.82;;;;;;;;;;2531667;23;20010;-79
2023/06/20 01:06:14;;;;;;;40.13;14.48;;;;;;;;;;2529598;23;20006;-79
2023/06/20 01:07:43;;;;;;;17.58;10.25;;;;;;;;;;2531164;23;20014;-79
2023/06/20 01:09:10;;;;;;;26.23;11.68;;;;;;;;;;2529754;23;20013;-79
2023/06/20 01:10:46;;;;;;;29.67;12.38;;;;;;;;;;2527198;23;20014;-79
2023/06/20 01:12:12;;;;;;;20.08;10.48;;;;;;;;;;2530920;23;20340;-79
2023/06/20 01:13:53;;;;;;;25.25;11.98;;;;;;;;;;2529472;23;20021;-79
2023/06/20 01:15:20;;;;;;;33.00;13.93;;;;;;;;;;2531215;23;20010;-80
2023/06/20 01:16:43;;;;;;;35.30;14.20;;;;;;;;;;2524859;23;20073;-80
2023/06/20 01:18:15;;;;;;;18.48;10.93;;;;;;;;;;2528151;23;20367;-80
2023/06/20 01:19:40;;;;;;;25.02;11.63;;;;;;;;;;2539727;23;20009;-80
2023/06/20 01:21:07;;;;;;;21.63;11.18;;;;;;;;;;2533887;23;20014;-80
2023/06/20 01:22:57;;;;;;;19.50;11.40;;;;;;;;;;2532738;23;20455;-80
2023/06/20 01:24:23;;;;;;;28.38;12.73;;;;;;;;;;2497415;23;20546;-80
2023/06/20 01:25:48;;;;;;;21.88;11.05;;;;;;;;;;2532276;23;20041;-79
2023/06/20 01:27:15;;;;;;;25.38;11.82;;;;;;;;;;2528992;23;20017;-79
2023/06/20 01:28:38;;;;;;;27.50;12.90;;;;;;;;;;2530225;23;20006;-79
2023/06/20 01:30:05;;;;;;;28.80;11.65;;;;;;;;;;2530137;23;20016;-80
2023/06/20 01:31:32;;;;;;;18.83;10.65;;;;;;;;;;2530541;23;20014;-79
2023/06/20 01:33:02;;;;;;;17.00;10.18;;;;;;;;;;2529827;23;20348;-79
2023/06/20 01:34:28;;;;;;;25.60;11.98;;;;;;;;;;2531578;23;20034;-79
2023/06/20 01:35:49;;;;;;;25.70;12.52;;;;;;;;;;2530754;23;20486;-80
2023/06/20 01:37:15;;;;;;;19.27;10.77;;;;;;;;;;2515965;23;20025;-79
2023/06/20 01:38:42;;;;;;;26.63;11.43;;;;;;;;;;2541408;23;20014;-80
2023/06/20 01:40:15;;;;;;;17.02;10.48;;;;;;;;;;2529775;23;20013;-79
2023/06/20 01:41:37;;;;;;;22.35;11.75;;;;;;;;;;2541573;23;20017;-79
2023/06/20 01:43:02;;;;;;;26.13;12.05;;;;;;;;;;2532095;23;20384;-79
2023/06/20 01:44:25;;;;;;;25.88;12.82;;;;;;;;;;2540273;23;20153;-79
2023/06/20 01:45:47;;;;;;;19.50;10.95;;;;;;;;;;2533449;23;20014;-79
2023/06/20 01:47:09;;;;;;;28.77;13.13;;;;;;;;;;2513954;23;20018;-80
2023/06/20 01:48:32;;;;;;;22.52;10.82;;;;;;;;;;2541933;23;20013;-78
2023/06/20 01:49:54;;;;;;;29.80;12.35;;;;;;;;;;2531591;23;20454;-78
2023/06/20 01:51:16;;;;;;;19.45;11.50;;;;;;;;;;2528803;23;20090;-77
2023/06/20 01:52:40;;;;;;;32.50;13.07;;;;;;;;;;2529066;23;20010;-77
2023/06/20 01:54:02;;;;;;;22.77;11.07;;;;;;;;;;2540891;23;20457;-77
2023/06/20 01:55:25;;;;;;;28.08;12.55;;;;;;;;;;2533285;23;20045;-77
2023/06/20 01:56:47;;;;;;;23.60;11.45;;;;;;;;;;2539183;23;20013;-77
2023/06/20 01:58:10;;;;;;;21.10;11.40;;;;;;;;;;2533016;23;20069;-77
2023/06/20 01:59:34;;;;;;;23.63;11.40;;;;;;;;;;2530804;23;20018;-77
2023/06/20 02:00:57;;;;;;;20.17;11.35;;;;;;;;;;2539444;23;20018;-78
2023/06/20 02:02:19;;;;;;;20.65;10.88;;;;;;;;;;2530569;23;20400;-77
2023/06/20 02:03:41;;;;;;;29.60;13.00;;;;;;;;;;2526649;23;20037;-77
2023/06/20 02:05:04;;;;;;;17.50;10.18;;;;;;;;;;2526674;23;20022;-77
2023/06/20 02:06:27;;;;;;;21.63;11.30;;;;;;;;;;2537664;23;20001;-78
2023/06/20 02:07:53;;;;;;;29.80;13.55;;;;;;;;;;2532466;23;20014;-78
2023/06/20 02:09:15;;;;;;;20.05;10.45;;;;;;;;;;2529856;23;20700;-77
2023/06/20 02:10:44;;;;;;;;;;;;;;;;;;2526592;23;20010;-78
2023/06/20 02:12:07;;;;;;;17.02;10.52;;;;;;;;;;2541195;23;19908;-77
2023/06/20 02:13:31;;;;;;;21.83;11.07;;;;;;;;;;2529561;23;20014;-80
2023/06/20 02:14:52;;;;;;;23.52;12.15;;;;;;;;;;2529748;23;20014;-81
2023/06/20 02:16:15;;;;;;;25.55;12.68;;;;;;;;;;2541711;23;20017;-81
2023/06/20 02:17:40;;;;;;;27.67;12.13;;;;;;;;;;2526848;23;20041;-81
2023/06/20 02:19:07;;;;;;;23.23;10.95;;;;;;;;;;2540415;23;20009;-81
2023/06/20 02:20:28;;;;;;;18.77;10.85;;;;;;;;;;2544916;23;20083;-80
2023/06/20 02:21:49;;;;;;;18.27;11.35;;;;;;;;;;2544456;23;20088;-80
2023/06/20 02:23:10;;;;;;;25.97;13.27;;;;;;;;;;2532554;23;20348;-81
2023/06/20 02:24:33;;;;;;;29.30;12.57;;;;;;;;;;2528585;23;20484;-81
2023/06/20 02:26:07;;;;;;;29.48;12.07;;;;;;;;;;2528271;23;20017;-80
2023/06/20 02:27:28;;;;;;;27.38;13.13;;;;;;;;;;2538918;23;20745;-81
2023/06/20 02:28:49;;;;;;;18.75;11.07;;;;;;;;;;2531975;23;20006;-80
2023/06/20 02:30:12;;;;;;;23.77;11.45;;;;;;;;;;2528036;23;20061;-80
2023/06/20 02:31:36;;;;;;;21.55;10.23;;;;;;;;;;2526534;23;20014;-80
2023/06/20 02:32:58;;;;;;;20.75;11.23;;;;;;;;;;2539941;23;20036;-81
2023/06/20 02:34:19;;;;;;;;;;;;;;;;;;2533305;23;20026;-80
2023/06/20 02:35:42;;;;;;;23.77;11.82;;;;;;;;;;2538056;23;20247;-80
2023/06/20 02:37:07;;;;;;;19.33;10.95;;;;;;;;;;2530776;23;20018;-80
2023/06/20 02:38:28;;;;;;;23.50;11.93;;;;;;;;;;2529263;23;20014;-81
2023/06/20 02:39:49;;;;;;;23.20;11.07;;;;;;;;;;2541366;23;20351;-80
2023/06/20 02:41:10;;;;;;;20.10;11.10;;;;;;;;;;2542759;23;20017;-80
2023/06/20 02:42:31;;;;;;;27.65;12.07;;;;;;;;;;2534465;23;20018;-81
2023/06/20 02:43:56;;;;;;;24.50;11.85;;;;;;;;;;2539422;23;20017;-81
2023/06/20 02:45:20;;;;;;;20.67;10.80;;;;;;;;;;2533577;23;20045;-81
2023/06/20 02:47:00;;;;;;;30.50;13.23;;;;;;;;;;2529604;23;20014;-80
2023/06/20 02:48:29;;;;;;;21.25;11.90;;;;;;;;;;2530919;23;20010;-81
2023/06/20 02:50:06;;;;;;;18.80;10.63;;;;;;;;;;2532813;23;20348;-80
2023/06/20 02:51:32;;;;;;;27.77;12.77;;;;;;;;;;2532709;23;20014;-80
2023/06/20 02:53:00;;;;;;;28.90;11.88;;;;;;;;;;2542378;23;20013;-81
2023/06/20 02:54:28;;;;;;;25.85;11.23;;;;;;;;;;2531421;23;20018;-80
2023/06/20 02:55:52;;;;;;;20.88;10.30;;;;;;;;;;2531632;23;20014;-81
2023/06/20 02:57:15;;;;;;;18.23;10.50;;;;;;;;;;2540719;23;20052;-80
2023/06/20 02:58:37;;;;;;;21.05;10.60;;;;;;;;;;2545557;23;20009;-80
2023/06/20 03:00:09;;;;;;;24.77;11.95;;;;;;;;;;2543620;23;20010;-80
2023/06/20 03:01:32;;;;;;;20.05;11.75;;;;;;;;;;2545477;23;20032;-79
2023/06/20 03:03:08;;;;;;;20.48;10.98;;;;;;;;;;2532860;23;20063;-79
2023/06/20 03:04:34;;;;;;;21.58;11.25;;;;;;;;;;2532446;23;20014;-80
2023/06/20 03:06:06;;;;;;;26.10;11.43;;;;;;;;;;2529699;23;20006;-80
2023/06/20 03:07:33;;;;;;;22.27;12.15;;;;;;;;;;2541104;23;20013;-79
2023/06/20 03:08:56;;;;;;;18.00;10.98;;;;;;;;;;2534772;23;20005;-80
2023/06/20 03:10:18;;;;;;;26.23;12.45;;;;;;;;;;2528775;23;20450;-80
2023/06/20 03:11:39;;;;;;;26.48;11.40;;;;;;;;;;2532388;23;20009;-79
2023/06/20 03:13:02;;;;;;;22.55;11.05;;;;;;;;;;2539946;23;20016;-79
2023/06/20 03:14:29;;;;;;;23.20;11.63;;;;;;;;;;2544631;23;20018;-79
2023/06/20 03:15:50;;;;;;;23.95;11.75;;;;;;;;;;2543011;23;20060;-80
2023/06/20 03:17:13;;;;;;;27.45;12.25;;;;;;;;;;2530529;23;20363;-79
2023/06/20 03:18:51;;;;;;;24.35;12.50;;;;;;;;;;2528604;23;20034;-80
2023/06/20 03:20:12;;;;;;;21.15;11.02;;;;;;;;;;2532147;23;20057;-79
2023/06/20 03:21:38;;;;;;;20.48;10.85;;;;;;;;;;2540723;23;20310;-79
2023/06/20 03:23:02;;;;;;;18.55;9.88;;;;;;;;;;2532898;23;20414;-79
2023/06/20 03:24:23;;;;;;;15.25;10.25;;;;;;;;;;2533442;23;20021;-79
2023/06/20 03:25:49;;;;;;;22.83;11.55;;;;;;;;;;2529390;23;20086;-79
2023/06/20 03:27:10;;;;;;;21.52;11.00;;;;;;;;;;2540969;23;20009;-79
2023/06/20 03:28:33;;;;;;;31.70;12.98;;;;;;;;;;2543354;23;20013;-79
2023/06/20 03:29:56;;;;;;;25.98;12.38;;;;;;;;;;2530818;23;20009;-79
2023/06/20 03:31:17;;;;;;;27.52;13.07;;;;;;;;;;2528908;23;20017;-79
2023/06/20 03:32:40;;;;;;;19.23;10.98;;;;;;;;;;2528154;23;20006;-79
2023/06/20 03:34:01;;;;;;;17.38;10.05;;;;;;;;;;2530384;23;20018;-79
2023/06/20 03:35:22;;;;;;;18.90;10.63;;;;;;;;;;2530328;23;20013;-79
2023/06/20 03:36:43;;;;;;;30.40;15.18;;;;;;;;;;2540511;23;20014;-79
2023/06/20 03:38:04;;;;;;;18.40;10.52;;;;;;;;;;2533440;23;20021;-79
2023/06/20 03:39:25;;;;;;;15.80;9.05;;;;;;;;;;2540480;23;20343;-79
2023/06/20 03:40:49;;;;;;;18.20;10.20;;;;;;;;;;2546509;23;20010;-80
2023/06/20 03:42:10;;;;;;;19.42;10.50;;;;;;;;;;2532755;23;20010;-80
2023/06/20 03:43:34;;;;;;;16.08;10.40;;;;;;;;;;2542540;23;20336;-79
2023/06/20 03:44:58;;;;;;;18.73;10.40;;;;;;;;;;2533139;23;20018;-79
2023/06/20 03:46:22;;;;;;;17.88;10.82;;;;;;;;;;2540927;23;20005;-79
2023/06/20 03:47:43;;;;;;;22.73;10.57;;;;;;;;;;2546159;23;20519;-79
2023/06/20 03:49:04;;;;;;;16.50;10.20;;;;;;;;;;2534146;23;20014;-79
2023/06/20 03:50:25;;;;;;;22.08;12.25;;;;;;;;;;2541357;23;20013;-79
2023/06/20 03:51:49;;;;;;;16.03;9.43;;;;;;;;;;2532641;23;20013;-79
2023/06/20 03:53:10;;;;;;;22.23;11.60;;;;;;;;;;2529436;23;20465;-79
2023/06/20 03:54:31;;;;;;;17.13;10.73;;;;;;;;;;2528711;23;20006;-79
2023/06/20 03:55:55;;;;;;;18.10;10.45;;;;;;;;;;2533242;23;20022;-79
2023/06/20 03:57:23;;;;;;;18.30;10.38;;;;;;;;;;2530456;23;20014;-79
2023/06/20 03:58:44;;;;;;;22.02;11.48;;;;;;;;;;2532701;23;20010;-79
2023/06/20 04:00:10;;;;;;;21.13;11.40;;;;;;;;;;2541410;23;20431;-79
2023/06/20 04:01:31;;;;;;;21.13;10.48;;;;;;;;;;2532295;23;20448;-79
2023/06/20 04:03:01;;;;;;;21.88;11.35;;;;;;;;;;2529929;23;20021;-79
2023/06/20 04:04:22;;;;;;;23.08;12.50;;;;;;;;;;2542009;23;20013;-80
2023/06/20 04:05:44;;;;;;;18.48;11.60;;;;;;;;;;2532226;23;20049;-79
2023/06/20 04:07:11;;;;;;;19.33;10.77;;;;;;;;;;2531609;23;20014;-79
2023/06/20 04:08:32;;;;;;;28.75;13.77;;;;;;;;;;2528193;23;20085;-79
2023/06/20 04:09:53;;;;;;;24.38;12.55;;;;;;;;;;2537309;23;20005;-79
2023/06/20 04:11:35;;;;;;;20.80;11.83;;;;;;;;;;2528604;23;20006;-79
2023/06/20 04:12:56;;;;;;;27.58;13.10;;;;;;;;;;2532989;23;20377;-79
2023/06/20 04:14:20;;;;;;;29.83;13.85;;;;;;;;;;2529751;23;20423;-79
2023/06/20 04:15:41;;;;;;;30.98;13.80;;;;;;;;;;2528049;23;20021;-79
2023/06/20 04:17:02;;;;;;;20.92;11.80;;;;;;;;;;2528739;23;20077;-80
2023/06/20 04:18:26;;;;;;;26.00;12.60;;;;;;;;;;2538766;23;20341;-79
2023/06/20 04:19:51;;;;;;;29.13;12.93;;;;;;;;;;2542883;23;20932;-79
2023/06/20 04:21:12;;;;;;;29.58;13.20;;;;;;;;;;2543427;23;20024;-79
2023/06/20 04:22:36;;;;;;;29.58;14.32;;;;;;;;;;2541764;23;20099;-79
2023/06/20 04:23:57;;;;;;;27.88;13.82;;;;;;;;;;2532026;23;20014;-79
2023/06/20 04:25:18;;;;;;;21.20;12.68;;;;;;;;;;2528281;23;20018;-79
2023/06/20 04:26:39;;;;;;;24.27;12.90;;;;;;;;;;2526675;23;20333;-79
2023/06/20 04:28:01;;;;;;;25.77;11.93;;;;;;;;;;2527490;23;20455;-79
2023/06/20 04:29:32;;;;;;;;;;;;;;;;;;2538332;23;20443;-79
2023/06/20 04:30:53;;;;;;;25.15;13.18;;;;;;;;;;2528211;23;19915;-79
2023/06/20 04:32:14;;;;;;;34.22;14.43;;;;;;;;;;2539864;23;20012;-80
2023/06/20 04:33:43;;;;;;;23.77;12.53;;;;;;;;;;2528964;23;20010;-77
2023/06/20 04:35:10;;;;;;;26.10;13.57;;;;;;;;;;2529971;23;20789;-76
2023/06/20 04:36:33;;;;;;;29.02;13.48;;;;;;;;;;2530952;23;20459;-76
2023/06/20 04:37:56;;;;;;;32.25;14.38;;;;;;;;;;2529706;23;20017;-76
2023/06/20 04:39:20;;;;;;;30.45;14.40;;;;;;;;;;2529780;23;20017;-76
2023/06/20 04:40:41;;;;;;;29.83;14.27;;;;;;;;;;2529052;23;20041;-76
2023/06/20 04:42:02;;;;;;;21.98;12.00;;;;;;;;;;2527900;23;20029;-76
2023/06/20 04:43:23;;;;;;;32.10;12.93;;;;;;;;;;2527374;23;20018;-76
2023/06/20 04:44:48;;;;;;;25.02;12.73;;;;;;;;;;2527206;23;20466;-76
2023/06/20 04:46:09;;;;;;;26.85;14.25;;;;;;;;;;2531567;23;20010;-77
2023/06/20 04:47:32;;;;;;;30.27;14.38;;;;;;;;;;2529803;23;20013;-76
2023/06/20 04:48:53;;;;;;;29.90;15.05;;;;;;;;;;2530553;23;20014;-77
2023/06/20 04:50:15;;;;;;;31.17;14.53;;;;;;;;;;2530922;23;20433;-76
2023/06/20 04:51:42;;;;;;;20.25;12.57;;;;;;;;;;2530540;23;20381;-76
2023/06/20 04:53:03;;;;;;;19.25;12.77;;;;;;;;;;2532765;23;20010;-77
2023/06/20 04:54:24;;;;;;;36.60;15.75;;;;;;;;;;2529826;23;20010;-77
2023/06/20 04:55:49;;;;;;;26.05;14.23;;;;;;;;;;2528967;23;20020;-77
2023/06/20 04:57:10;;;;;;;25.67;14.32;;;;;;;;;;2539502;23;20052;-76
2023/06/20 04:58:36;;;;;;;20.95;13.32;;;;;;;;;;2534475;23;20014;-77
2023/06/20 05:00:02;;;;;;;26.13;14.63;;;;;;;;;;2531860;23;20018;-77
2023/06/20 05:01:32;;;;;;;27.88;14.45;;;;;;;;;;2530033;23;20089;-77
2023/06/20 05:02:53;;;;;;;27.42;16.35;;;;;;;;;;2530214;23;20013;-77
2023/06/20 05:04:14;;;;;;;25.52;14.13;;;;;;;;;;2532310;23;20021;-76
2023/06/20 05:05:35;;;;;;;23.75;14.48;;;;;;;;;;2532649;23;20017;-76
2023/06/20 05:07:00;;;;;;;29.85;16.13;;;;;;;;;;2531625;23;20025;-77
2023/06/20 05:08:21;;;;;;;30.38;16.13;;;;;;;;;;2533960;23;20021;-76
2023/06/20 05:09:42;;;;;;;23.73;14.48;;;;;;;;;;2533839;23;20014;-77
2023/06/20 05:11:04;;;;;;;23.98;14.35;;;;;;;;;;2532594;23;20526;-76
2023/06/20 05:12:25;;;;;;;;;;;;;;;;;;2535679;23;20013;-77
2023/06/20 05:13:48;;;;;;;27.92;14.88;;;;;;;;;;2532141;23;20314;-77
2023/06/20 05:15:09;;;;;;;30.15;16.48;;;;;;;;;;2530734;23;20017;-76
2023/06/20 05:16:30;;;;;;;28.33;15.57;;;;;;;;;;2530718;23;20037;-76
2023/06/20 05:17:52;;;;;;;33.35;17.88;;;;;;;;;;2524426;23;20017;-77
2023/06/20 05:19:33;;;;;;;25.67;15.00;;;;;;;;;;2541732;23;20478;-77
2023/06/20 05:20:55;;;;;;;35.95;17.98;;;;;;;;;;2544281;23;20064;-76
2023/06/20 05:22:16;;;;;;;30.20;16.45;;;;;;;;;;2536123;23;20017;-77
2023/06/20 05:23:37;;;;;;;31.60;17.58;;;;;;;;;;2534865;23;20009;-76
2023/06/20 05:24:58;;;;;;;32.80;17.50;;;;;;;;;;2532195;23;20017;-76
2023/06/20 05:26:18;;;;;;;27.13;16.35;;;;;;;;;;2532261;23;20017;-77
2023/06/20 05:27:40;;;;;;;36.47;18.88;;;;;;;;;;2528989;23;20479;-76
2023/06/20 05:29:01;;;;;;;30.23;17.65;;;;;;;;;;2532520;23;20017;-77
2023/06/20 05:30:24;;;;;;;28.42;18.20;;;;;;;;;;2534144;23;20017;-77
2023/06/20 05:31:45;;;;;;;38.45;19.70;;;;;;;;;;2521625;23;20011;-77
2023/06/20 05:33:06;;;;;;;32.30;19.27;;;;;;;;;;2523677;23;20010;-77
2023/06/20 05:34:28;;;;;;;33.45;19.23;;;;;;;;;;2526603;23;20029;-77
2023/06/20 05:35:49;;;;;;;35.70;20.58;;;;;;;;;;2543626;23;20040;-76
2023/06/20 05:37:17;;;;;;;36.83;21.33;;;;;;;;;;2544065;23;20037;-77
2023/06/20 05:38:40;;;;;;;39.78;20.95;;;;;;;;;;2532304;23;20014;-76
2023/06/20 05:40:05;;;;;;;35.03;20.75;;;;;;;;;;2530846;23;20024;-77
2023/06/20 05:41:26;;;;;;;43.70;22.02;;;;;;;;;;2529328;23;20400;-76
2023/06/20 05:42:47;;;;;;;31.13;19.90;;;;;;;;;;2538008;23;20014;-77
2023/06/20 05:44:08;;;;;;;36.20;20.35;;;;;;;;;;2543402;23;20018;-77
2023/06/20 05:45:29;;;;;;;33.50;20.45;;;;;;;;;;2544786;23;20379;-77
2023/06/20 05:46:50;;;;;;;38.05;20.65;;;;;;;;;;2533826;23;20456;-77
2023/06/20 05:48:11;;;;;;;40.08;21.23;;;;;;;;;;2538971;23;20006;-77
2023/06/20 05:49:32;;;;;;;39.70;22.20;;;;;;;;;;2532113;23;20436;-77
2023/06/20 05:50:53;;;;;;;38.23;20.87;;;;;;;;;;2528716;23;20014;-76
2023/06/20 05:52:15;;;;;;;33.65;20.85;;;;;;;;;;2525265;23;20377;-77
2023/06/20 05:53:36;;;;;;;35.80;20.38;;;;;;;;;;2542191;23;20009;-77
2023/06/20 05:54:57;;;;;;;36.95;19.95;;;;;;;;;;2545323;23;20435;-77
2023/06/20 05:56:18;;;;;;;34.90;21.67;;;;;;;;;;2544955;23;20005;-77
2023/06/20 05:57:40;;;;;;;42.90;19.98;;;;;;;;;;2530828;23;20014;-77
2023/06/20 05:59:03;;;;;;;31.83;20.90;;;;;;;;;;2539521;23;20443;-77
2023/06/20 06:00:27;;;;;;;31.83;18.58;;;;;;;;;;2546534;23;20010;-77
2023/06/20 06:01:48;;;;;;;35.67;20.95;;;;;;;;;;2533384;23;20006;-77
2023/06/20 06:03:09;;;;;;;31.40;19.40;;;;;;;;;;2535353;23;20006;-76
2023/06/20 06:04:31;;;;;;;34.47;19.45;;;;;;;;;;2527707;23;20013;-76
2023/06/20 06:05:52;;;;;;;30.70;20.73;;;;;;;;;;2531120;23;20021;-76
2023/06/20 06:07:13;;;;;;;36.65;21.02;;;;;;;;;;2540723;23;20013;-76
2023/06/20 06:08:34;;;;;;;32.00;20.50;;;;;;;;;;2536275;23;20025;-76
2023/06/20 06:09:59;;;;;;;33.83;20.45;;;;;;;;;;2542094;23;20005;-76
2023/06/20 06:11:20;;;;;;;33.83;19.30;;;;;;;;;;2547216;23;20006;-76
2023/06/20 06:12:40;;;;;;;35.95;20.50;;;;;;;;;;2533172;23;20021;-75
2023/06/20 06:14:01;;;;;;;30.73;19.27;;;;;;;;;;2541249;23;20013;-75
2023/06/20 06:15:22;;;;;;;32.13;19.15;;;;;;;;;;2546526;23;20125;-75
2023/06/20 06:16:44;;;;;;;31.83;19.13;;;;;;;;;;2544667;23;20016;-75
2023/06/20 06:18:08;;;;;;;29.33;18.63;;;;;;;;;;2544549;23;20013;-75
2023/06/20 06:19:29;;;;;;;28.77;18.98;;;;;;;;;;2544682;23;20016;-74
2023/06/20 06:20:50;;;;;;;34.60;18.23;;;;;;;;;;2543346;23;20014;-75
2023/06/20 06:22:12;;;;;;;30.13;19.38;;;;;;;;;;2543430;23;20017;-74
2023/06/20 06:23:37;;;;;;;30.08;18.98;;;;;;;;;;2531517;23;20114;-75
2023/06/20 06:24:58;;;;;;;29.38;16.90;;;;;;;;;;2532034;23;20020;-74
2023/06/20 06:26:19;;;;;;;30.85;17.52;;;;;;;;;;2540059;23;20343;-75
2023/06/20 06:27:41;;;;;;;34.22;18.35;;;;;;;;;;2543935;23;20020;-75
2023/06/20 06:29:04;;;;;;;27.65;16.45;;;;;;;;;;2534439;23;20011;-75
2023/06/20 06:30:25;;;;;;;24.85;15.93;;;;;;;;;;2532213;23;20014;-75
2023/06/20 06:31:46;;;;;;;25.48;16.42;;;;;;;;;;2541128;23;20009;-74
2023/06/20 06:33:07;;;;;;;25.95;16.02;;;;;;;;;;2545495;23;20005;-75
2023/06/20 06:34:28;;;;;;;25.33;15.27;;;;;;;;;;2546000;23;20024;-74
2023/06/20 06:35:55;;;;;;;24.95;15.82;;;;;;;;;;2532839;23;20065;-75
2023/06/20 06:37:20;;;;;;;26.67;15.63;;;;;;;;;;2541655;23;20421;-75
2023/06/20 06:38:41;;;;;;;29.40;15.63;;;;;;;;;;2543747;23;20021;-75
2023/06/20 06:40:05;;;;;;;25.50;14.23;;;;;;;;;;2546424;23;20010;-74
2023/06/20 06:41:28;;;;;;;24.58;14.32;;;;;;;;;;2533538;23;20010;-75
2023/06/20 06:42:52;;;;;;;19.77;12.38;;;;;;;;;;2532637;23;20048;-75
2023/06/20 06:44:13;;;;;;;21.30;12.88;;;;;;;;;;2542675;23;20028;-75
2023/06/20 06:45:37;;;;;;;19.75;12.52;;;;;;;;;;2535906;23;20014;-73
2023/06/20 06:47:00;;;;;;;23.30;12.20;;;;;;;;;;2543230;23;20424;-74
2023/06/20 06:48:21;;;;;;;19.25;12.20;;;;;;;;;;2534593;23;20010;-74
2023/06/20 06:49:44;;;;;;;21.33;12.90;;;;;;;;;;2541575;23;20017;-74
2023/06/20 06:51:08;;;;;;;17.05;10.77;;;;;;;;;;2534786;23;20082;-73
2023/06/20 06:52:29;;;;;;;19.75;10.73;;;;;;;;;;2533509;23;20367;-74
2023/06/20 06:53:51;;;;;;;17.40;11.85;;;;;;;;;;2543404;23;20010;-74
2023/06/20 06:55:12;;;;;;;17.15;10.82;;;;;;;;;;2545132;23;20482;-73
2023/06/20 06:56:33;;;;;;;19.23;10.88;;;;;;;;;;2531225;23;20014;-74
2023/06/20 06:57:54;;;;;;;20.05;10.68;;;;;;;;;;2533621;23;20014;-74
2023/06/20 06:59:15;;;;;;;17.15;10.88;;;;;;;;;;2528920;23;20010;-74
2023/06/20 07:00:36;;;;;;;15.32;9.88;;;;;;;;;;2528188;23;20431;-74
2023/06/20 07:01:59;;;;;;;14.27;8.63;;;;;;;;;;2544080;23;20032;-73
2023/06/20 07:03:20;;;;;;;14.77;8.45;;;;;;;;;;2546310;23;20005;-73
2023/06/20 07:04:44;;;;;;;13.75;8.05;;;;;;;;;;2547429;23;20013;-73
2023/06/20 07:06:05;;;;;;;15.20;8.50;;;;;;;;;;2534080;23;20013;-74
2023/06/20 07:07:26;;;;;;;14.93;8.55;;;;;;;;;;2540722;23;20006;-74
2023/06/20 07:08:47;;;;;;;14.75;8.35;;;;;;;;;;2532594;23;20014;-73
2023/06/20 07:10:09;;;;;;;11.48;7.55;;;;;;;;;;2536358;23;20451;-74
2023/06/20 07:11:30;;;;;;;13.68;7.97;;;;;;;;;;2529774;23;20480;-74
2023/06/20 07:12:51;;;;;;;15.60;8.02;;;;;;;;;;2543846;23;20458;-73
2023/06/20 07:14:12;;;;;;;12.70;7.93;;;;;;;;;;2546753;23;20064;-73
2023/06/20 07:15:33;;;;;;;13.57;7.70;;;;;;;;;;2532287;23;20037;-73
2023/06/20 07:16:54;;;;;;;14.07;7.82;;;;;;;;;;2539933;23;20009;-74
2023/06/20 07:18:15;;;;;;;12.38;7.28;;;;;;;;;;2545165;23;20020;-73
2023/06/20 07:19:36;;;;;;;13.55;8.15;;;;;;;;;;2546599;23;20010;-73
2023/06/20 07:20:59;;;;;;;16.08;8.27;;;;;;;;;;2546840;23;20017;-74
2023/06/20 07:22:20;;;;;;;10.73;7.20;;;;;;;;;;2547809;23;20021;-74
2023/06/20 07:23:41;;;;;;;10.68;7.00;;;;;;;;;;2535039;23;20017;-74
2023/06/20 07:25:02;;;;;;;11.52;6.80;;;;;;;;;;2542303;23;20010;-73
2023/06/20 07:26:23;;;;;;;12.63;7.63;;;;;;;;;;2533702;23;20025;-73
2023/06/20 07:27:44;;;;;;;9.23;6.90;;;;;;;;;;2542497;23;20429;-73
2023/06/20 07:29:06;;;;;;;12.85;6.85;;;;;;;;;;2547492;23;20005;-73
2023/06/20 07:30:28;;;;;;;12.57;8.00;;;;;;;;;;2546945;23;20068;-73
2023/06/20 07:31:49;;;;;;;;;;;;;;;;;;2545852;23;20029;-73
2023/06/20 07:33:10;;;;;;;11.30;6.97;;;;;;;;;;2532297;23;19901;-74
2023/06/20 07:34:31;;;;;;;11.73;7.82;;;;;;;;;;2532479;23;20065;-75
2023/06/20 07:35:52;;;;;;;11.05;7.53;;;;;;;;;;2531312;23;20013;-74
2023/06/20 07:37:16;;;;;;;14.00;8.60;;;;;;;;;;2543119;23;20017;-73
2023/06/20 07:38:37;;;;;;;11.77;7.68;;;;;;;;;;2533699;23;20033;-74
2023/06/20 07:39:58;;;;;;;10.68;7.70;;;;;;;;;;2528881;23;20470;-74
2023/06/20 07:41:19;;;;;;;13.20;7.88;;;;;;;;;;2541114;23;20014;-74
2023/06/20 07:42:40;;;;;;;9.32;6.93;;;;;;;;;;2533489;23;20014;-74
2023/06/20 07:44:01;;;;;;;14.25;8.05;;;;;;;;;;2542152;23;20013;-74
2023/06/20 07:45:22;;;;;;;13.50;7.60;;;;;;;;;;2532388;23;20014;-74
2023/06/20 07:46:44;;;;;;;11.52;7.43;;;;;;;;;;2541942;23;20018;-72
2023/06/20 07:48:06;;;;;;;17.80;8.43;;;;;;;;;;2533471;23;20017;-72
2023/06/20 07:49:28;;;;;;;17.58;9.57;;;;;;;;;;2539896;23;20016;-73
2023/06/20 07:50:49;;;;;;;16.30;9.05;;;;;;;;;;2535259;23;20013;-72
2023/06/20 07:52:10;;;;;;;11.45;8.15;;;;;;;;;;2541346;23;20010;-76
2023/06/20 07:53:31;;;;;;;12.32;8.13;;;;;;;;;;2533945;23;20014;-74
2023/06/20 07:54:52;;;;;;;12.32;8.02;;;;;;;;;;2529817;23;20006;-75
2023/06/20 07:56:13;;;;;;;12.25;8.25;;;;;;;;;;2528580;23;20050;-75
2023/06/20 08:22:04;;;;;;;20.27;10.70;;;;;;;;;;2519316;23;20371;-73
2023/06/20 08:23:28;;;;;;;10.40;6.90;;;;;;;;;;2519475;23;20010;-73
2023/06/20 08:24:49;;;;;;;12.88;7.53;;;;;;;;;;2534843;23;20017;-73
2023/06/20 08:26:10;;;;;;;12.57;7.40;;;;;;;;;;2532331;23;20348;-73
2023/06/20 08:27:34;;;;;;;10.55;7.53;;;;;;;;;;2531420;23;20002;-74
2023/06/20 08:28:54;;;;;;;11.10;8.23;;;;;;;;;;2532045;23;20115;-74
2023/06/20 08:30:15;;;;;;;14.07;9.13;;;;;;;;;;2531459;23;20318;-74
2023/06/20 08:31:36;;;;;;;10.95;8.25;;;;;;;;;;2526243;23;20006;-73